createdAt,value
2019-03-21T00:02:04.335Z,3.80
2019-03-21T00:04:32.807Z,4.00
2019-03-21T00:07:01.331Z,3.80
2019-03-21T00:09:29.794Z,4.00
2019-03-21T00:11:59.911Z,4.00
2019-03-21T00:14:36.987Z,3.90
2019-03-21T00:17:14.323Z,3.90
2019-03-21T00:19:42.833Z,4.00
2019-03-21T00:22:11.322Z,4.00
2019-03-21T00:24:39.774Z,3.90
2019-03-21T00:27:08.242Z,3.90
2019-03-21T00:29:36.688Z,3.90
2019-03-21T00:32:05.185Z,3.70
2019-03-21T00:34:33.629Z,3.70
2019-03-21T00:37:02.090Z,3.70
2019-03-21T00:39:32.931Z,3.70
2019-03-21T00:42:01.042Z,3.70
2019-03-21T00:44:29.845Z,3.70
2019-03-21T00:46:58.316Z,3.70
2019-03-21T00:49:26.791Z,3.70
2019-03-21T00:51:55.673Z,3.70
2019-03-21T00:54:24.169Z,3.70
2019-03-21T00:56:52.979Z,3.80
2019-03-21T00:59:21.478Z,3.70
2019-03-21T01:01:49.947Z,3.50
2019-03-21T01:04:19.144Z,3.30
2019-03-21T01:06:47.628Z,3.30
2019-03-21T01:09:16.723Z,3.20
2019-03-21T01:11:45.214Z,3.10
2019-03-21T01:14:13.667Z,3.10
2019-03-21T01:16:42.132Z,3.00
2019-03-21T01:19:10.614Z,3.00
2019-03-21T01:21:39.108Z,3.10
2019-03-21T01:24:07.910Z,3.10
2019-03-21T01:26:36.717Z,3.10
2019-03-21T01:29:05.195Z,3.20
2019-03-21T01:31:33.638Z,3.10
2019-03-21T01:34:02.136Z,3.10
2019-03-21T01:36:30.586Z,3.00
2019-03-21T01:38:59.055Z,2.90
2019-03-21T01:41:27.541Z,2.90
2019-03-21T01:43:55.995Z,2.90
2019-03-21T01:46:27.387Z,2.90
2019-03-21T01:48:56.140Z,2.90
2019-03-21T01:51:24.613Z,2.90
2019-03-21T01:53:54.821Z,2.90
2019-03-21T01:56:23.306Z,3.10
2019-03-21T01:58:51.849Z,3.10
2019-03-21T02:01:20.329Z,2.90
2019-03-21T02:03:48.780Z,2.80
2019-03-21T02:06:17.325Z,2.70
2019-03-21T02:08:45.803Z,2.80
2019-03-21T02:11:14.269Z,2.90
2019-03-21T02:13:42.744Z,2.90
2019-03-21T02:16:11.216Z,2.90
2019-03-21T02:18:39.754Z,3.00
2019-03-21T02:21:08.529Z,3.20
2019-03-21T02:23:37.037Z,3.00
2019-03-21T02:26:05.910Z,2.90
2019-03-21T02:28:34.363Z,3.00
2019-03-21T02:31:02.843Z,3.00
2019-03-21T02:33:36.911Z,3.00
2019-03-21T02:36:10.324Z,2.90
2019-03-21T02:38:38.839Z,2.90
2019-03-21T02:41:10.498Z,2.90
2019-03-21T02:43:39.539Z,2.70
2019-03-21T02:46:08.067Z,2.70
2019-03-21T02:48:36.513Z,2.80
2019-03-21T02:51:06.345Z,2.90
2019-03-21T02:53:34.803Z,2.90
2019-03-21T02:56:05.397Z,2.70
2019-03-21T02:58:33.851Z,2.70
2019-03-21T03:01:02.377Z,2.80
2019-03-21T03:03:30.869Z,2.50
2019-03-21T03:05:59.400Z,2.60
2019-03-21T03:08:27.932Z,2.60
2019-03-21T03:11:02.497Z,2.70
2019-03-21T03:13:30.970Z,2.70
2019-03-21T03:15:59.512Z,2.90
2019-03-21T03:18:27.971Z,3.00
2019-03-21T03:20:56.526Z,2.90
2019-03-21T03:23:25.052Z,3.10
2019-03-21T03:25:53.551Z,2.90
2019-03-21T03:28:28.319Z,2.80
2019-03-21T03:30:58.658Z,2.70
2019-03-21T03:33:27.870Z,2.80
2019-03-21T03:35:56.374Z,2.80
2019-03-21T03:38:24.855Z,2.90
2019-03-21T03:41:01.457Z,2.90
2019-03-21T03:43:29.938Z,2.70
2019-03-21T03:45:58.401Z,2.70
2019-03-21T03:48:27.919Z,2.60
2019-03-21T03:50:56.463Z,2.50
2019-03-21T03:53:25.103Z,2.50
2019-03-21T03:55:53.634Z,2.50
2019-03-21T03:58:25.199Z,2.60
2019-03-21T04:00:53.892Z,2.70
2019-03-21T04:03:22.881Z,2.70
2019-03-21T04:05:51.464Z,2.70
2019-03-21T04:08:20.254Z,2.90
2019-03-21T04:10:50.548Z,2.90
2019-03-21T04:13:18.985Z,2.90
2019-03-21T04:15:53.210Z,2.90
2019-03-21T04:18:20.265Z,2.90
2019-03-21T04:20:51.575Z,2.80
2019-03-21T04:23:22.585Z,2.80
2019-03-21T04:25:56.880Z,2.80
2019-03-21T04:28:25.405Z,2.80
2019-03-21T04:30:53.873Z,2.70
2019-03-21T04:33:23.024Z,2.60
2019-03-21T04:35:51.797Z,2.70
2019-03-21T04:38:20.258Z,2.50
2019-03-21T04:40:48.713Z,2.40
2019-03-21T04:43:17.196Z,2.60
2019-03-21T04:45:45.653Z,2.70
2019-03-21T04:48:14.116Z,2.70
2019-03-21T04:50:42.952Z,2.60
2019-03-21T04:53:11.421Z,2.60
2019-03-21T04:55:40.020Z,2.60
2019-03-21T04:58:08.499Z,2.70
2019-03-21T05:00:45.885Z,2.80
2019-03-21T05:03:16.399Z,2.80
2019-03-21T05:05:44.856Z,2.80
2019-03-21T05:08:13.336Z,2.70
2019-03-21T05:10:41.810Z,2.60
2019-03-21T05:13:10.280Z,2.60
2019-03-21T05:15:40.913Z,2.50
2019-03-21T05:18:30.059Z,2.40
2019-03-21T05:21:00.135Z,2.30
2019-03-21T05:23:28.584Z,2.40
2019-03-21T05:25:57.139Z,2.50
2019-03-21T05:28:25.599Z,2.50
2019-03-21T05:31:03.146Z,2.40
2019-03-21T05:33:31.607Z,2.20
2019-03-21T05:36:00.319Z,2.00
2019-03-21T05:38:31.650Z,2.00
2019-03-21T05:41:00.172Z,2.00
2019-03-21T05:43:49.976Z,2.20
2019-03-21T05:46:26.673Z,2.30
2019-03-21T05:48:49.823Z,2.30
2019-03-21T05:51:18.362Z,2.40
2019-03-21T05:53:46.835Z,2.40
2019-03-21T05:56:15.297Z,2.50
2019-03-21T05:58:43.778Z,2.40
2019-03-21T06:01:13.159Z,2.50
2019-03-21T06:03:46.864Z,2.50
2019-03-21T06:06:27.765Z,2.60
2019-03-21T06:08:56.250Z,2.50
2019-03-21T06:11:24.707Z,2.50
2019-03-21T06:13:53.163Z,2.40
2019-03-21T06:16:21.647Z,2.30
2019-03-21T06:19:08.617Z,2.20
2019-03-21T06:22:01.545Z,2.10
2019-03-21T06:24:33.065Z,2.10
2019-03-21T06:27:29.733Z,2.30
2019-03-21T06:29:58.527Z,2.50
2019-03-21T06:32:28.195Z,2.60
2019-03-21T06:34:57.201Z,2.70
2019-03-21T06:37:28.718Z,2.80
2019-03-21T06:39:56.856Z,2.80
2019-03-21T06:42:25.948Z,2.90
2019-03-21T06:44:54.423Z,2.90
2019-03-21T06:47:23.208Z,2.90
2019-03-21T06:49:51.996Z,3.00
2019-03-21T06:52:20.437Z,3.00
2019-03-21T06:54:48.902Z,3.10
2019-03-21T06:57:17.373Z,3.20
2019-03-21T06:59:45.815Z,3.20
2019-03-21T07:02:14.285Z,3.40
2019-03-21T07:04:42.733Z,3.40
2019-03-21T07:07:11.225Z,3.50
2019-03-21T07:09:39.951Z,3.60
2019-03-21T07:12:08.427Z,3.60
2019-03-21T07:14:36.956Z,3.70
2019-03-21T07:17:05.445Z,3.80
2019-03-21T07:19:33.899Z,3.90
2019-03-21T07:22:02.393Z,4.00
2019-03-21T07:24:30.842Z,4.00
2019-03-21T07:26:59.312Z,4.10
2019-03-21T07:29:27.799Z,4.20
2019-03-21T07:31:56.329Z,4.30
2019-03-21T07:34:25.075Z,4.40
2019-03-21T07:36:53.566Z,4.50
2019-03-21T07:39:22.023Z,4.60
2019-03-21T07:41:50.495Z,4.70
2019-03-21T07:44:18.978Z,4.80
2019-03-21T07:46:47.448Z,4.90
2019-03-21T07:49:15.901Z,5.00
2019-03-21T07:51:45.248Z,4.90
2019-03-21T07:54:14.042Z,5.10
2019-03-21T07:56:42.500Z,5.30
2019-03-21T07:59:10.943Z,5.50
2019-03-21T08:01:39.405Z,5.70
2019-03-21T08:04:08.289Z,5.70
2019-03-21T08:06:36.749Z,5.80
2019-03-21T08:09:07.129Z,6.00
2019-03-21T08:11:35.670Z,6.10
2019-03-21T08:14:04.406Z,6.10
2019-03-21T08:16:32.946Z,6.20
2019-03-21T08:19:01.745Z,6.30
2019-03-21T08:21:30.339Z,6.30
2019-03-21T08:23:58.814Z,6.40
2019-03-21T08:26:27.281Z,6.50
2019-03-21T08:28:55.821Z,6.60
2019-03-21T08:31:24.276Z,6.60
2019-03-21T08:33:52.819Z,6.70
2019-03-21T08:36:21.320Z,6.70
2019-03-21T08:38:50.113Z,6.70
2019-03-21T08:41:18.635Z,6.90
2019-03-21T08:43:47.475Z,6.90
2019-03-21T08:46:15.923Z,7.00
2019-03-21T08:48:44.404Z,7.10
2019-03-21T08:51:12.861Z,7.20
2019-03-21T08:53:41.353Z,7.20
2019-03-21T08:56:10.186Z,7.30
2019-03-21T08:58:38.635Z,7.30
2019-03-21T09:01:07.173Z,7.30
2019-03-21T09:03:35.639Z,7.40
2019-03-21T09:06:04.259Z,7.60
2019-03-21T09:08:33.111Z,7.70
2019-03-21T09:11:01.587Z,7.80
2019-03-21T09:13:30.052Z,7.80
2019-03-21T09:15:58.485Z,8.00
2019-03-21T09:18:26.973Z,7.90
2019-03-21T09:20:55.508Z,8.00
2019-03-21T09:23:23.993Z,8.00
2019-03-21T09:25:52.459Z,8.00
2019-03-21T09:28:20.934Z,8.10
2019-03-21T09:30:50.604Z,8.10
2019-03-21T09:33:19.353Z,8.20
2019-03-21T09:35:47.878Z,8.50
2019-03-21T09:38:16.406Z,8.40
2019-03-21T09:40:44.854Z,8.40
2019-03-21T09:43:13.339Z,8.30
2019-03-21T09:45:41.859Z,8.50
2019-03-21T09:48:10.312Z,8.50
2019-03-21T09:50:39.055Z,8.70
2019-03-21T09:53:07.511Z,8.70
2019-03-21T09:55:37.652Z,8.70
2019-03-21T09:58:06.431Z,8.70
2019-03-21T10:00:36.443Z,8.80
2019-03-21T10:03:05.745Z,8.70
2019-03-21T10:05:34.313Z,8.70
2019-03-21T10:08:03.018Z,8.70
2019-03-21T10:10:33.765Z,8.90
2019-03-21T10:13:02.652Z,9.00
2019-03-21T10:15:31.127Z,8.90
2019-03-21T10:17:59.637Z,9.00
2019-03-21T10:20:28.273Z,9.10
2019-03-21T10:22:56.790Z,9.10
2019-03-21T10:25:26.648Z,9.20
2019-03-21T10:27:55.640Z,9.30
2019-03-21T10:30:40.540Z,9.20
2019-03-21T10:33:10.650Z,9.40
2019-03-21T10:35:39.352Z,9.40
2019-03-21T10:38:08.529Z,9.30
2019-03-21T10:40:37.550Z,9.30
2019-03-21T10:43:06.870Z,9.50
2019-03-21T10:45:35.757Z,9.50
2019-03-21T10:48:04.658Z,9.60
2019-03-21T10:50:36.206Z,9.70
2019-03-21T10:53:05.551Z,9.90
2019-03-21T10:55:34.075Z,9.80
2019-03-21T10:58:02.544Z,9.60
2019-03-21T11:00:31.024Z,10.00
2019-03-21T11:02:59.824Z,10.00
2019-03-21T11:05:28.312Z,9.90
2019-03-21T11:07:56.770Z,10.00
2019-03-21T11:10:25.329Z,9.90
2019-03-21T11:12:53.933Z,10.10
2019-03-21T11:15:22.389Z,10.20
2019-03-21T11:17:51.639Z,10.20
2019-03-21T11:20:28.989Z,10.10
2019-03-21T11:22:57.465Z,10.20
2019-03-21T11:25:25.910Z,10.30
2019-03-21T11:27:54.479Z,10.50
2019-03-21T11:30:35.121Z,10.30
2019-03-21T11:33:03.671Z,10.50
2019-03-21T11:35:32.567Z,10.70
2019-03-21T11:38:01.184Z,10.70
2019-03-21T11:40:29.728Z,10.80
2019-03-21T11:42:58.503Z,10.90
2019-03-21T11:45:27.115Z,10.90
2019-03-21T11:47:55.578Z,10.80
2019-03-21T11:50:24.043Z,10.90
2019-03-21T11:52:52.509Z,10.80
2019-03-21T11:55:21.122Z,10.90
2019-03-21T11:57:49.749Z,10.90
2019-03-21T12:00:18.850Z,11.00
2019-03-21T12:02:47.312Z,11.10
2019-03-21T12:05:16.136Z,11.20
2019-03-21T12:07:44.599Z,11.20
2019-03-21T12:10:14.029Z,11.20
2019-03-21T12:12:42.487Z,11.10
2019-03-21T12:15:11.612Z,10.90
2019-03-21T12:17:40.063Z,11.10
2019-03-21T12:20:10.894Z,11.10
2019-03-21T12:22:39.355Z,10.90
2019-03-21T12:25:08.645Z,11.00
2019-03-21T12:27:37.140Z,11.00
2019-03-21T12:30:11.306Z,11.20
2019-03-21T12:32:39.866Z,11.40
2019-03-21T12:35:08.417Z,11.30
2019-03-21T12:37:36.895Z,11.10
2019-03-21T12:40:07.899Z,11.20
2019-03-21T12:42:36.461Z,11.20
2019-03-21T12:45:07.727Z,11.50
2019-03-21T12:47:36.194Z,11.40
2019-03-21T12:50:07.267Z,11.50
2019-03-21T12:52:41.417Z,11.70
2019-03-21T12:55:08.125Z,11.60
2019-03-21T12:57:36.681Z,11.60
2019-03-21T13:00:11.310Z,11.60
2019-03-21T13:02:39.763Z,11.90
2019-03-21T13:05:09.193Z,12.20
2019-03-21T13:07:37.664Z,12.00
2019-03-21T13:10:07.427Z,12.10
2019-03-21T13:12:35.878Z,12.20
2019-03-21T13:15:06.211Z,12.10
2019-03-21T13:17:34.975Z,12.20
2019-03-21T13:20:05.727Z,12.30
2019-03-21T13:22:34.233Z,12.40
2019-03-21T13:25:02.695Z,12.30
2019-03-21T13:27:31.386Z,12.50
2019-03-21T13:29:59.878Z,12.50
2019-03-21T13:32:28.347Z,12.50
2019-03-21T13:34:56.833Z,12.50
2019-03-21T13:37:25.300Z,12.70
2019-03-21T13:39:53.792Z,12.60
2019-03-21T13:42:22.246Z,12.70
2019-03-21T13:44:50.718Z,12.70
2019-03-21T13:47:19.170Z,12.60
2019-03-21T13:49:47.621Z,12.60
2019-03-21T13:52:16.103Z,12.70
2019-03-21T13:54:44.553Z,12.80
2019-03-21T13:57:13.036Z,12.90
2019-03-21T13:59:41.567Z,13.10
2019-03-21T14:02:10.047Z,13.10
2019-03-21T14:04:38.517Z,13.10
2019-03-21T14:07:06.995Z,13.20
2019-03-21T14:09:35.444Z,13.30
2019-03-21T14:12:04.073Z,13.40
2019-03-21T14:14:32.537Z,13.30
2019-03-21T14:17:01.000Z,13.30
2019-03-21T14:19:29.469Z,13.30
2019-03-21T14:21:57.927Z,13.30
2019-03-21T14:24:26.399Z,13.30
2019-03-21T14:26:54.859Z,13.60
2019-03-21T14:29:23.319Z,13.60
2019-03-21T14:31:51.793Z,13.50
2019-03-21T14:34:20.574Z,13.60
2019-03-21T14:36:49.022Z,13.90
2019-03-21T14:39:17.739Z,13.90
2019-03-21T14:41:46.229Z,13.70
2019-03-21T14:44:14.755Z,13.50
2019-03-21T14:46:43.222Z,13.40
2019-03-21T14:49:11.964Z,13.40
2019-03-21T14:51:40.458Z,13.60
2019-03-21T14:54:08.979Z,14.00
2019-03-21T14:56:37.449Z,13.80
2019-03-21T14:59:05.994Z,13.60
2019-03-21T15:01:34.472Z,13.60
2019-03-21T15:04:02.981Z,13.60
2019-03-21T15:06:31.687Z,13.60
2019-03-21T15:09:00.149Z,13.70
2019-03-21T15:11:28.952Z,13.40
2019-03-21T15:13:57.813Z,13.40
2019-03-21T15:16:26.271Z,13.40
2019-03-21T15:18:54.762Z,13.50
2019-03-21T15:21:23.205Z,13.50
2019-03-21T15:23:59.341Z,14.10
2019-03-21T15:26:21.940Z,14.00
2019-03-21T15:28:50.401Z,13.80
2019-03-21T15:31:18.859Z,13.80
2019-03-21T15:33:47.591Z,13.70
2019-03-21T15:36:16.051Z,13.60
2019-03-21T15:38:44.517Z,13.50
2019-03-21T15:41:12.988Z,13.40
2019-03-21T15:43:41.496Z,13.40
2019-03-21T15:46:09.941Z,13.20
2019-03-21T15:48:38.406Z,13.20
2019-03-21T15:51:07.191Z,13.00
2019-03-21T15:53:35.980Z,12.90
2019-03-21T15:56:04.517Z,12.90
2019-03-21T15:58:32.998Z,12.80
2019-03-21T16:01:01.523Z,12.70
2019-03-21T16:03:30.008Z,12.50
2019-03-21T16:05:58.801Z,12.60
2019-03-21T16:08:27.577Z,12.50
2019-03-21T16:10:56.049Z,12.60
2019-03-21T16:13:24.508Z,12.60
2019-03-21T16:15:53.342Z,12.50
2019-03-21T16:18:21.799Z,12.40
2019-03-21T16:20:50.597Z,12.10
2019-03-21T16:23:19.089Z,12.10
2019-03-21T16:25:48.638Z,12.30
2019-03-21T16:28:20.017Z,12.20
2019-03-21T16:30:47.495Z,12.00
2019-03-21T16:33:15.959Z,12.00
2019-03-21T16:35:44.655Z,11.80
2019-03-21T16:38:13.126Z,11.90
2019-03-21T16:40:42.205Z,11.80
2019-03-21T16:43:10.698Z,11.90
2019-03-21T16:45:39.176Z,12.00
2019-03-21T16:48:09.174Z,11.80
2019-03-21T16:50:38.008Z,11.60
2019-03-21T16:53:06.516Z,11.70
2019-03-21T16:55:35.312Z,11.50
2019-03-21T16:58:03.816Z,11.40
2019-03-21T17:00:32.332Z,11.30
2019-03-21T17:03:01.145Z,11.50
2019-03-21T17:05:29.678Z,11.40
2019-03-21T17:08:10.103Z,11.20
2019-03-21T17:10:30.483Z,11.10
2019-03-21T17:12:58.599Z,11.00
2019-03-21T17:15:27.059Z,10.90
2019-03-21T17:17:55.514Z,10.80
2019-03-21T17:20:24.162Z,10.80
2019-03-21T17:22:52.729Z,10.70
2019-03-21T17:25:21.285Z,10.70
2019-03-21T17:27:49.745Z,10.50
2019-03-21T17:30:18.357Z,10.40
2019-03-21T17:32:46.839Z,10.40
2019-03-21T17:35:15.442Z,10.30
2019-03-21T17:37:43.987Z,10.20
2019-03-21T17:40:14.573Z,10.10
2019-03-21T17:42:43.067Z,10.10
2019-03-21T17:45:18.419Z,10.00
2019-03-21T17:47:47.119Z,10.00
2019-03-21T17:50:17.244Z,10.00
2019-03-21T17:52:45.731Z,10.00
2019-03-21T17:55:14.533Z,9.90
2019-03-21T17:57:42.988Z,9.80
2019-03-21T18:00:14.541Z,9.70
2019-03-21T18:02:43.335Z,9.60
2019-03-21T18:05:12.146Z,9.50
2019-03-21T18:07:40.919Z,9.30
2019-03-21T18:10:28.325Z,9.30
2019-03-21T18:12:56.937Z,9.20
2019-03-21T18:15:26.042Z,9.00
2019-03-21T18:17:54.585Z,9.00
2019-03-21T18:20:23.066Z,8.90
2019-03-21T18:22:51.608Z,8.80
2019-03-21T18:25:20.471Z,8.70
2019-03-21T18:27:48.927Z,8.60
2019-03-21T18:30:17.843Z,8.50
2019-03-21T18:32:46.331Z,8.20
2019-03-21T18:35:15.165Z,8.20
2019-03-21T18:37:43.708Z,8.30
2019-03-21T18:40:12.513Z,8.30
2019-03-21T18:42:40.999Z,8.30
2019-03-21T18:45:12.394Z,8.40
2019-03-21T18:47:40.859Z,8.30
2019-03-21T18:50:16.142Z,8.40
2019-03-21T18:52:44.730Z,8.20
2019-03-21T18:55:13.561Z,8.20
2019-03-21T18:57:42.019Z,8.30
2019-03-21T19:00:15.953Z,8.20
2019-03-21T19:02:44.415Z,8.10
2019-03-21T19:05:13.589Z,8.00
2019-03-21T19:07:42.136Z,8.10
2019-03-21T19:10:15.763Z,8.40
2019-03-21T19:12:44.657Z,8.30
2019-03-21T19:15:14.376Z,8.20
2019-03-21T19:17:43.001Z,8.20
2019-03-21T19:20:14.293Z,8.20
2019-03-21T19:22:42.769Z,8.20
2019-03-21T19:25:18.353Z,8.20
2019-03-21T19:27:42.513Z,8.30
2019-03-21T19:30:14.046Z,8.20
2019-03-21T19:32:42.504Z,8.20
2019-03-21T19:35:11.251Z,8.10
2019-03-21T19:37:39.750Z,8.20
2019-03-21T19:40:14.547Z,8.20
2019-03-21T19:42:43.321Z,8.20
2019-03-21T19:45:12.945Z,8.20
2019-03-21T19:47:41.424Z,8.30
2019-03-21T19:50:15.056Z,8.20
2019-03-21T19:52:43.627Z,8.00
2019-03-21T19:55:12.731Z,8.00
2019-03-21T19:57:41.604Z,8.10
2019-03-21T20:00:13.476Z,8.20
2019-03-21T20:02:42.040Z,8.10
2019-03-21T20:05:11.030Z,7.90
2019-03-21T20:07:39.487Z,7.80
2019-03-21T20:10:09.790Z,7.70
2019-03-21T20:12:38.525Z,7.60
2019-03-21T20:15:09.664Z,7.70
2019-03-21T20:17:38.123Z,7.80
2019-03-21T20:20:12.281Z,7.90
2019-03-21T20:22:40.749Z,7.90
2019-03-21T20:25:10.086Z,7.90
2019-03-21T20:27:38.716Z,7.80
2019-03-21T20:30:16.748Z,7.70
2019-03-21T20:32:45.407Z,7.70
2019-03-21T20:35:14.402Z,7.70
2019-03-21T20:37:42.879Z,7.60
2019-03-21T20:40:14.153Z,7.60
2019-03-21T20:42:42.697Z,7.70
2019-03-21T20:45:16.687Z,7.90
2019-03-21T20:47:45.139Z,7.80
2019-03-21T20:50:14.160Z,7.80
2019-03-21T20:52:42.614Z,7.80
2019-03-21T20:55:11.573Z,7.70
2019-03-21T20:57:40.283Z,7.70
2019-03-21T21:00:20.272Z,7.70
2019-03-21T21:02:49.379Z,7.70
2019-03-21T21:05:17.957Z,7.50
2019-03-21T21:07:46.763Z,7.30
2019-03-21T21:10:15.756Z,7.20
2019-03-21T21:12:44.308Z,6.90
2019-03-21T21:15:15.025Z,6.90
2019-03-21T21:17:43.661Z,6.80
2019-03-21T21:20:18.409Z,6.80
2019-03-21T21:22:47.088Z,6.90
2019-03-21T21:25:15.597Z,6.90
2019-03-21T21:27:49.687Z,6.80
2019-03-21T21:30:17.009Z,6.70
2019-03-21T21:32:45.576Z,6.70
2019-03-21T21:35:14.150Z,6.90
2019-03-21T21:37:42.787Z,6.90
2019-03-21T21:40:12.569Z,6.80
2019-03-21T21:42:41.028Z,6.80
2019-03-21T21:45:17.628Z,6.70
2019-03-21T21:47:46.302Z,6.60
2019-03-21T21:50:16.115Z,6.60
2019-03-21T21:52:44.647Z,6.50
2019-03-21T21:55:13.571Z,6.50
2019-03-21T21:57:42.056Z,6.40
2019-03-21T22:00:21.627Z,6.30
2019-03-21T22:02:50.167Z,6.30
2019-03-21T22:05:18.719Z,6.20
2019-03-21T22:07:47.233Z,6.10
2019-03-21T22:10:16.751Z,6.10
2019-03-21T22:12:45.279Z,6.10
2019-03-21T22:15:15.265Z,6.00
2019-03-21T22:17:43.844Z,6.00
2019-03-21T22:20:16.926Z,6.00
2019-03-21T22:22:45.557Z,5.90
2019-03-21T22:25:14.762Z,6.00
2019-03-21T22:27:43.867Z,6.00
2019-03-21T22:30:19.566Z,6.00
2019-03-21T22:32:48.105Z,5.90
2019-03-21T22:35:16.697Z,5.80
2019-03-21T22:37:45.257Z,5.90
2019-03-21T22:40:15.106Z,5.90
2019-03-21T22:42:43.583Z,5.70
2019-03-21T22:45:16.084Z,5.70
2019-03-21T22:47:44.635Z,5.60
2019-03-21T22:50:15.346Z,5.60
2019-03-21T22:52:44.342Z,5.70
2019-03-21T22:55:13.230Z,5.70
2019-03-21T22:57:41.746Z,5.90
2019-03-21T23:00:22.789Z,6.00
2019-03-21T23:02:51.395Z,6.10
2019-03-21T23:05:20.595Z,6.10
2019-03-21T23:07:49.157Z,6.20
2019-03-21T23:10:17.773Z,6.00
2019-03-21T23:12:46.255Z,6.10
2019-03-21T23:15:14.870Z,6.30
2019-03-21T23:17:43.420Z,6.20
2019-03-21T23:20:16.584Z,5.90
2019-03-21T23:22:45.098Z,5.80
2019-03-21T23:25:16.581Z,5.90
2019-03-21T23:27:45.117Z,5.80
2019-03-21T23:30:16.213Z,5.70
2019-03-21T23:32:44.690Z,5.70
2019-03-21T23:35:13.410Z,5.80
2019-03-21T23:37:41.935Z,5.90
2019-03-21T23:40:14.921Z,5.90
2019-03-21T23:42:43.895Z,5.90
2019-03-21T23:45:13.893Z,5.90
2019-03-21T23:47:42.525Z,5.70
2019-03-21T23:50:13.107Z,5.80
2019-03-21T23:52:41.643Z,5.90
2019-03-21T23:55:10.518Z,5.80
2019-03-21T23:57:39.049Z,5.70
